Time;durP1;ratioP1;P1;durP2;ratioP2;P2;SDS_P1;SDS_P2;PMS_P1;PMS_P2;Temp;Humidity;BMP_temperature;BMP_pressure;BME280_temperature;BME280_humidity;BME280_pressure;Samples;Min_cycle;Max_cycle;Signal;HPM_P1;HPM_P2
2021/11/19 00:00:00;;;;;;;15.93;8.30;;;;;;;9.91;64.02;100238.69;7387775;19;20103;-65
2021/11/19 00:05:23;;;;;;;12.77;8.85;;;;;;;9.89;64.42;100201.22;7340299;19;20014;-64
2021/11/19 00:08:11;;;;;;;12.63;8.65;;;;;;;9.89;64.60;100203.84;7387973;19;20497;-65
2021/11/19 00:11:00;;;;;;;14.95;8.65;;;;;;;9.87;64.76;100204.81;7386077;19;20037;-65
2021/11/19 00:13:49;;;;;;;12.32;8.38;;;;;;;9.81;65.03;100195.44;7388370;19;20055;-65
2021/11/19 00:16:42;;;;;;;18.10;10.45;;;;;;;9.83;65.05;100198.84;7386399;19;20547;-64
2021/11/19 00:21:58;;;;;;;12.95;8.73;;;;;;;9.87;64.84;100197.81;7385571;19;20014;-63
2021/11/19 00:24:46;;;;;;;15.20;9.05;;;;;;;9.72;65.70;100186.13;7386736;19;20037;-63
2021/11/19 00:27:34;;;;;;;14.23;9.35;;;;;;;9.65;65.67;100186.41;7387779;19;20501;-64
2021/11/19 00:33:00;;;;;;;13.90;9.02;;;;;;;9.66;65.98;100180.25;7317311;19;20017;-64
2021/11/19 00:35:48;;;;;;;14.88;9.18;;;;;;;9.71;65.79;100173.09;7386131;19;20501;-64
2021/11/19 00:38:36;;;;;;;13.38;8.55;;;;;;;9.70;65.55;100180.09;7386200;19;20502;-64
2021/11/19 00:50:00;;;;;;;12.93;8.23;;;;;;;9.60;66.01;100165.63;7348904;19;20447;-64
2021/11/19 00:52:47;;;;;;;12.97;8.40;;;;;;;9.69;65.95;100162.69;7386555;19;20117;-64
2021/11/19 00:55:36;;;;;;;12.85;8.15;;;;;;;9.66;66.22;100156.69;7386467;19;20290;-64
2021/11/19 00:58:24;;;;;;;12.73;8.40;;;;;;;9.67;66.10;100161.03;7386823;19;20027;-64
2021/11/19 01:01:28;;;;;;;12.52;8.07;;;;;;;9.77;65.63;100147.53;7384690;19;20526;-64
2021/11/19 01:04:18;;;;;;;12.00;8.52;;;;;;;9.80;65.85;100145.75;7387173;19;20555;-64
2021/11/19 01:07:10;;;;;;;12.38;9.00;;;;;;;9.71;66.40;100158.25;7386581;19;20522;-65
2021/11/19 01:15:28;;;;;;;13.90;8.25;;;;;;;9.67;66.71;100145.31;7368253;19;20014;-64
2021/11/19 01:18:34;;;;;;;11.93;8.45;;;;;;;9.62;66.99;100152.50;7393036;19;20025;-64
2021/11/19 01:21:26;;;;;;;12.80;7.93;;;;;;;9.57;67.17;100120.38;7393263;19;20417;-64
2021/11/19 01:26:52;;;;;;;13.30;9.27;;;;;;;9.44;67.78;100128.69;7290899;19;20010;-65
2021/11/19 01:29:40;;;;;;;13.43;8.07;;;;;;;9.46;67.57;100133.84;7391955;19;20517;-64
2021/11/19 01:32:28;;;;;;;12.88;8.40;;;;;;;9.48;67.55;100124.19;7391246;19;20037;-65
2021/11/19 01:35:18;;;;;;;13.73;9.43;;;;;;;9.43;67.88;100106.03;7392350;19;20024;-63
2021/11/19 01:38:06;;;;;;;10.93;7.18;;;;;;;9.47;67.62;100112.00;7389775;19;20039;-64
2021/11/19 01:41:00;;;;;;;10.30;8.00;;;;;;;9.53;67.89;100106.56;7392918;19;20051;-63
2021/11/19 01:43:59;;;;;;;11.40;7.45;;;;;;;9.61;67.78;100114.16;7360771;19;20025;-64
2021/11/19 01:49:38;;;;;;;12.30;7.07;;;;;;;9.75;67.03;100117.94;7388747;19;20014;-63
2021/11/19 01:55:17;;;;;;;11.25;7.07;;;;;;;9.69;67.16;100099.00;7376656;19;20463;-63
2021/11/19 01:58:11;;;;;;;12.15;7.35;;;;;;;9.64;67.76;100103.56;7389993;19;20533;-63
2021/11/19 02:01:04;;;;;;;9.93;6.75;;;;;;;9.61;67.64;100094.06;7392952;19;20025;-64
2021/11/19 02:06:56;;;;;;;9.55;6.45;;;;;;;9.56;68.12;100095.13;7364087;19;20102;-64
2021/11/19 02:09:51;;;;;;;8.10;6.05;;;;;;;9.60;68.02;100076.66;7390999;19;20024;-64
2021/11/19 02:15:20;;;;;;;8.27;5.88;;;;;;;9.76;67.50;100097.84;7354483;19;20332;-64
2021/11/19 02:18:14;;;;;;;8.85;6.55;;;;;;;9.74;67.99;100099.69;7388387;19;20029;-64
2021/11/19 02:21:12;;;;;;;6.97;5.88;;;;;;;9.74;68.03;100099.69;7390887;19;20052;-64
2021/11/19 02:24:05;;;;;;;7.25;5.53;;;;;;;9.81;67.62;100089.84;7389798;19;20033;-65
2021/11/19 02:26:57;;;;;;;7.15;5.20;;;;;;;9.82;67.34;100089.78;7389446;19;20021;-65
2021/11/19 02:35:25;;;;;;;8.45;5.18;;;;;;;9.97;67.34;100086.56;7384762;19;20291;-62
2021/11/19 02:38:14;;;;;;;6.38;5.20;;;;;;;10.02;67.30;100084.66;7387982;19;20478;-62
2021/11/19 02:41:03;;;;;;;5.95;4.60;;;;;;;10.01;67.20;100088.19;7330608;19;20025;-62
2021/11/19 02:43:55;;;;;;;5.78;4.43;;;;;;;9.95;67.56;100088.38;7387748;19;20041;-62
2021/11/19 02:46:50;;;;;;;6.30;4.78;;;;;;;9.94;67.36;100089.31;7387678;19;20037;-61
2021/11/19 02:49:38;;;;;;;8.18;5.03;;;;;;;9.93;68.00;100097.22;7352393;19;20360;-64
2021/11/19 02:52:31;;;;;;;6.45;4.82;;;;;;;9.89;67.55;100093.03;7389669;19;20037;-64
2021/11/19 02:55:22;;;;;;;5.40;4.38;;;;;;;9.74;68.59;100097.91;7388213;19;20033;-64
2021/11/19 03:00:49;;;;;;;5.40;4.40;;;;;;;9.70;68.67;100077.16;7345637;19;20018;-64
2021/11/19 03:03:38;;;;;;;6.80;4.75;;;;;;;9.78;68.15;100080.31;7390694;19;20013;-64
2021/11/19 03:06:25;;;;;;;7.20;4.70;;;;;;;9.88;68.06;100076.47;7387378;19;20021;-64
2021/11/19 03:09:18;;;;;;;6.13;4.38;;;;;;;9.94;67.97;100065.75;7371449;19;20038;-65
2021/11/19 03:12:07;;;;;;;7.03;5.43;;;;;;;9.95;68.33;100064.81;7388985;19;20028;-65
2021/11/19 03:17:30;;;;;;;5.18;4.07;;;;;;;9.85;68.67;100062.63;7370339;19;20014;-67
2021/11/19 03:20:21;;;;;;;7.28;4.38;;;;;;;9.81;68.88;100064.53;7389626;19;20047;-67
2021/11/19 03:32:28;;;;;;;4.95;3.55;;;;;;;9.88;68.71;100047.66;7355489;19;20015;-62
2021/11/19 03:35:18;;;;;;;5.15;3.75;;;;;;;9.91;68.55;100055.38;7388671;19;20039;-63
2021/11/19 03:38:07;;;;;;;5.55;4.03;;;;;;;10.02;68.68;100058.47;7384689;19;20046;-62
2021/11/19 03:41:01;;;;;;;5.45;4.20;;;;;;;10.13;67.88;100067.66;7356747;19;20383;-62
2021/11/19 03:46:50;;;;;;;5.93;3.75;;;;;;;10.13;68.35;100065.03;7333010;19;20509;-65
2021/11/19 03:55:45;;;;;;;5.93;4.50;;;;;;;10.38;67.61;100071.03;7375894;19;20015;-62
2021/11/19 03:58:35;;;;;;;6.38;4.82;;;;;;;10.45;67.58;100050.69;7369747;19;20048;-66
2021/11/19 04:01:27;;;;;;;6.82;4.65;;;;;;;10.51;67.60;100061.75;7368453;19;20021;-67
2021/11/19 04:04:17;;;;;;;6.13;4.90;;;;;;;10.56;67.18;100078.13;7387231;19;20021;-66
2021/11/19 04:07:06;;;;;;;7.03;4.85;;;;;;;10.62;67.12;100054.31;7387551;19;20018;-67
2021/11/19 04:12:25;;;;;;;6.53;5.13;;;;;;;10.55;67.53;100068.56;7347569;19;20010;-64
2021/11/19 04:15:20;;;;;;;8.73;6.10;;;;;;;10.61;67.60;100067.47;7300113;19;20015;-62
2021/11/19 04:18:08;;;;;;;7.07;5.43;;;;;;;10.69;67.03;100068.88;7386761;19;20021;-63
2021/11/19 04:29:32;;;;;;;8.55;6.65;;;;;;;10.72;67.36;100078.38;7342016;19;20475;-64
2021/11/19 04:32:22;;;;;;;10.70;7.53;;;;;;;10.79;66.95;100084.19;7387972;19;20025;-61
2021/11/19 04:35:11;;;;;;;9.70;7.32;;;;;;;10.80;67.23;100088.53;7386143;19;20404;-63
2021/11/19 04:40:41;;;;;;;9.88;7.00;;;;;;;10.81;67.31;100090.22;7339195;19;20086;-67
2021/11/19 04:43:30;;;;;;;10.27;7.45;;;;;;;10.92;67.13;100093.28;7365586;19;20030;-62
2021/11/19 04:49:07;;;;;;;8.80;6.85;;;;;;;11.00;66.77;100075.44;7338760;19;20021;-68
2021/11/19 05:11:18;;;;;;;8.90;7.40;;;;;;;11.02;67.19;100081.44;7378629;19;20026;-66
2021/11/19 05:14:06;;;;;;;9.20;7.25;;;;;;;11.03;67.17;100088.41;7350972;19;20622;-64
2021/11/19 05:19:29;;;;;;;9.77;7.63;;;;;;;11.07;67.58;100058.53;7335344;19;20251;-63
2021/11/19 05:22:17;;;;;;;10.70;7.57;;;;;;;11.06;67.34;100069.94;7400883;19;20107;-64
2021/11/19 05:33:25;;;;;;;8.52;6.97;;;;;;;11.17;67.11;100080.81;7395630;19;20359;-67
2021/11/19 05:38:48;;;;;;;10.95;7.68;;;;;;;11.25;66.98;100076.09;7396229;19;20025;-64
2021/11/19 05:41:36;;;;;;;7.53;6.53;;;;;;;11.23;67.36;100074.44;7398556;19;20040;-64
2021/11/19 05:46:59;;;;;;;9.57;6.93;;;;;;;11.25;66.95;100093.59;7380775;19;20104;-65
2021/11/19 05:49:49;;;;;;;11.73;8.90;;;;;;;11.30;66.97;100094.25;7398960;19;20021;-65
2021/11/19 05:55:16;;;;;;;10.80;7.90;;;;;;;11.36;66.64;100082.63;7395634;19;20359;-64
2021/11/19 06:00:41;;;;;;;10.25;8.02;;;;;;;11.39;67.25;100087.72;7389203;19;20034;-64
2021/11/19 06:03:29;;;;;;;9.80;7.40;;;;;;;11.42;66.84;100087.59;7392610;19;20061;-64
2021/11/19 06:06:20;;;;;;;10.40;8.00;;;;;;;11.36;67.44;100072.13;7392553;19;20029;-64
2021/11/19 06:09:14;;;;;;;10.93;8.13;;;;;;;11.34;67.38;100092.34;7391742;19;20025;-65
2021/11/19 06:14:39;;;;;;;11.10;8.45;;;;;;;11.31;67.66;100095.97;7390713;19;20416;-64
2021/11/19 06:17:32;;;;;;;13.73;8.88;;;;;;;11.34;67.68;100079.22;7332824;19;20026;-64
2021/11/19 06:20:27;;;;;;;14.68;9.88;;;;;;;11.39;67.42;100072.00;7339962;19;20094;-64
2021/11/19 06:29:13;;;;;;;17.00;10.88;;;;;;;11.37;67.66;100079.94;7387965;19;20022;-65
2021/11/19 06:34:58;;;;;;;13.60;9.82;;;;;;;11.30;68.47;100092.47;7347110;19;20243;-64
2021/11/19 06:52:30;;;;;;;14.25;10.90;;;;;;;11.49;68.61;100120.56;7385862;19;20027;-64
2021/11/19 06:55:18;;;;;;;13.23;10.63;;;;;;;11.61;68.35;100122.63;7390121;19;20110;-65
2021/11/19 07:00:37;;;;;;;13.70;10.43;;;;;;;11.65;68.25;100129.44;7350635;19;20342;-64
2021/11/19 07:03:27;;;;;;;13.90;9.83;;;;;;;11.64;68.48;100111.97;7355169;19;20022;-64
2021/11/19 07:14:59;;;;;;;15.02;10.32;;;;;;;11.76;68.11;100098.28;7266561;19;20212;-67
2021/11/19 07:26:44;;;;;;;13.82;9.43;;;;;;;11.95;68.18;100108.84;7346453;19;20018;-64
2021/11/19 07:32:08;;;;;;;15.43;11.23;;;;;;;11.88;68.33;100103.03;7380602;19;20049;-64
2021/11/19 07:34:55;;;;;;;19.13;11.95;;;;;;;11.96;68.10;100112.31;7383079;19;20028;-65
2021/11/19 07:40:27;;;;;;;16.88;11.82;;;;;;;12.00;68.63;100129.66;7364143;19;20010;-68
2021/11/19 07:45:53;;;;;;;17.88;12.68;;;;;;;12.08;68.52;100125.75;7379363;19;20044;-69
2021/11/19 07:48:42;;;;;;;16.98;11.73;;;;;;;12.17;68.21;100125.31;7383570;19;20363;-66
2021/11/19 07:51:33;;;;;;;17.85;12.73;;;;;;;12.23;68.26;100124.16;7382113;19;20055;-68
2021/11/19 07:54:22;;;;;;;18.60;12.20;;;;;;;12.33;67.70;100120.19;7381345;19;20025;-67
2021/11/19 07:57:10;;;;;;;15.60;12.27;;;;;;;12.39;67.35;100114.63;7384875;19;20033;-67
2021/11/19 07:59:58;;;;;;;17.05;12.85;;;;;;;12.34;67.69;100126.31;7384778;19;20505;-68
2021/11/19 08:02:49;;;;;;;16.45;11.95;;;;;;;12.32;68.23;100136.03;7384597;19;20037;-69
2021/11/19 08:05:37;;;;;;;15.52;10.18;;;;;;;12.32;67.80;100129.00;7383809;19;20115;-70
2021/11/19 08:08:32;;;;;;;17.52;11.48;;;;;;;12.33;67.84;100135.13;7385064;19;20021;-71
2021/11/19 08:11:21;;;;;;;14.73;10.88;;;;;;;12.45;67.54;100129.25;7382194;19;20017;-71
2021/11/19 08:14:10;;;;;;;13.75;11.20;;;;;;;12.56;67.46;100137.50;7384390;19;20367;-70
2021/11/19 08:17:00;;;;;;;16.63;11.13;;;;;;;12.50;67.90;100143.91;7383890;19;20049;-73
2021/11/19 08:19:50;;;;;;;16.38;11.75;;;;;;;12.55;67.40;100137.56;7379135;19;20051;-69
2021/11/19 08:22:38;;;;;;;17.00;11.35;;;;;;;12.62;67.47;100123.19;7382486;19;20033;-68
2021/11/19 08:25:27;;;;;;;13.45;9.15;;;;;;;12.66;67.13;100130.84;7380469;19;20033;-68
2021/11/19 08:28:16;;;;;;;14.07;9.77;;;;;;;12.67;67.53;100148.34;7384065;19;20031;-70
2021/11/19 08:31:07;;;;;;;14.60;10.32;;;;;;;12.69;67.30;100140.38;7384511;19;20503;-71
2021/11/19 08:33:56;;;;;;;13.83;10.90;;;;;;;12.80;66.67;100148.59;7380967;19;20037;-68
2021/11/19 08:36:47;;;;;;;13.82;10.10;;;;;;;12.81;67.07;100152.94;7383095;19;20414;-67
2021/11/19 08:39:35;;;;;;;12.52;8.80;;;;;;;12.77;66.79;100136.47;7381787;19;21019;-66
2021/11/19 08:42:24;;;;;;;12.95;10.55;;;;;;;12.79;67.13;100134.59;7382898;19;20047;-69
2021/11/19 08:45:12;;;;;;;15.05;10.40;;;;;;;12.78;67.26;100142.56;7382458;19;20059;-67
2021/11/19 08:48:00;;;;;;;14.98;10.18;;;;;;;12.75;67.18;100130.41;7383063;19;20367;-67
2021/11/19 08:50:48;;;;;;;12.50;10.02;;;;;;;12.75;67.23;100130.41;7383155;19;20357;-67
2021/11/19 08:53:39;;;;;;;14.15;10.23;;;;;;;12.71;67.36;100139.41;7383015;19;20025;-67
2021/11/19 08:56:29;;;;;;;12.27;9.15;;;;;;;12.69;67.05;100133.34;7383033;19;20191;-67
2021/11/19 08:59:18;;;;;;;13.98;10.02;;;;;;;12.65;67.71;100141.44;7381221;19;20491;-66
2021/11/19 09:02:10;;;;;;;12.73;8.90;;;;;;;12.72;67.30;100148.13;7383177;19;20021;-67
2021/11/19 09:05:02;;;;;;;13.15;9.15;;;;;;;12.69;67.24;100132.47;7380162;19;20418;-66
2021/11/19 09:07:50;;;;;;;10.70;8.70;;;;;;;12.75;67.11;100142.72;7382027;19;20030;-66
2021/11/19 09:10:41;;;;;;;11.45;8.40;;;;;;;12.72;67.51;100133.22;7380298;19;20043;-66
2021/11/19 09:13:30;;;;;;;13.05;9.00;;;;;;;12.66;67.72;100124.75;7382781;19;20047;-68
2021/11/19 09:16:19;;;;;;;14.15;9.40;;;;;;;12.51;68.38;100132.47;7382516;19;20025;-67
2021/11/19 09:19:21;;;;;;;14.82;10.23;;;;;;;12.40;68.79;100140.00;7382046;19;20497;-68
2021/11/19 09:22:21;;;;;;;16.70;11.23;;;;;;;12.42;68.63;100140.78;7382900;19;20376;-65
2021/11/19 09:25:15;;;;;;;13.60;9.43;;;;;;;12.50;68.56;100127.28;7381641;19;20604;-66
2021/11/19 09:28:06;;;;;;;13.10;9.70;;;;;;;12.51;68.25;100132.47;7382960;19;20062;-67
2021/11/19 09:30:56;;;;;;;12.68;9.45;;;;;;;12.63;68.21;100127.53;7383617;19;20025;-65
2021/11/19 09:40:05;;;;;;;10.32;6.95;;;;;;;12.76;67.70;100129.50;7374669;19;20334;-71
2021/11/19 10:18:43;;;;;;;8.38;6.90;;;;;;;12.76;68.35;100094.44;7311734;19;21199;-71
2021/11/19 11:06:01;;;;;;;;;;;;;;;13.15;68.37;100072.31;7385573;19;20018;-70
2021/11/19 11:08:50;;;;;;;14.57;9.90;;;;;;;13.20;67.68;100067.69;7383963;19;20091;-68
2021/11/19 11:11:40;;;;;;;14.85;9.60;;;;;;;13.15;68.43;100057.38;7384819;19;20024;-69
2021/11/19 11:14:33;;;;;;;16.63;11.27;;;;;;;13.13;68.67;100069.75;7382892;19;20026;-72
2021/11/19 11:17:26;;;;;;;15.68;11.45;;;;;;;13.02;68.80;100059.78;7383997;19;20032;-69
2021/11/19 11:20:25;;;;;;;16.13;10.68;;;;;;;13.02;69.33;100066.81;7383553;19;20022;-68
2021/11/19 11:23:28;;;;;;;14.95;11.38;;;;;;;13.05;69.10;100066.66;7384865;19;20514;-70
2021/11/19 11:26:19;;;;;;;15.35;11.07;;;;;;;13.06;68.82;100070.97;7387154;19;20052;-68
2021/11/19 11:29:40;;;;;;;15.85;10.88;;;;;;;13.08;69.12;100071.75;7383943;19;20513;-69
2021/11/19 11:32:58;;;;;;;14.35;10.20;;;;;;;13.20;68.68;100067.69;7385916;19;20107;-67
2021/11/19 11:35:49;;;;;;;14.98;10.55;;;;;;;13.30;68.69;100061.84;7386013;19;20039;-66
2021/11/19 11:39:03;;;;;;;13.43;10.32;;;;;;;13.38;68.27;100064.94;7384806;19;20391;-67
2021/11/19 11:42:01;;;;;;;16.15;12.60;;;;;;;13.46;68.11;100061.03;7384458;19;20336;-68
2021/11/19 11:44:51;;;;;;;15.13;11.60;;;;;;;13.40;68.66;100072.75;7381736;19;20025;-71
2021/11/19 11:47:44;;;;;;;15.05;11.45;;;;;;;13.35;68.93;100066.91;7386533;19;20026;-68
2021/11/19 11:50:40;;;;;;;20.45;14.57;;;;;;;13.26;68.80;100067.34;7383607;19;20021;-71
2021/11/19 11:53:33;;;;;;;19.80;14.25;;;;;;;13.23;69.14;100068.38;7385207;19;20114;-72
2021/11/19 11:56:32;;;;;;;19.25;13.57;;;;;;;13.11;69.62;100069.81;7386635;19;20030;-69
2021/11/19 11:59:29;;;;;;;18.10;13.43;;;;;;;13.15;69.73;100044.22;7381765;19;20033;-70
2021/11/19 12:02:31;;;;;;;16.45;12.43;;;;;;;13.11;69.78;100067.19;7385177;19;20030;-69
2021/11/19 12:05:34;;;;;;;;;;;;;;;13.29;69.23;100054.03;7383655;19;20030;-69
2021/11/19 12:08:47;;;;;;;14.48;10.73;;;;;;;13.22;68.99;100056.16;7385613;19;19946;-70
2021/11/19 12:12:04;;;;;;;19.00;12.13;;;;;;;13.12;69.81;100058.38;7384085;19;20021;-68
2021/11/19 12:14:57;;;;;;;16.80;11.85;;;;;;;13.18;69.60;100059.03;7384299;19;20034;-71
2021/11/19 12:17:54;;;;;;;16.58;12.20;;;;;;;13.18;69.65;100056.38;7385406;19;20393;-74
2021/11/19 12:20:59;;;;;;;18.27;12.88;;;;;;;13.16;69.65;100048.53;7384060;19;20017;-74
2021/11/19 12:23:51;;;;;;;20.00;15.00;;;;;;;13.30;69.31;100053.94;7382514;19;20033;-74
2021/11/19 12:27:15;;;;;;;14.57;10.68;;;;;;;13.29;69.23;100065.41;7385270;19;20026;-73
2021/11/19 12:30:14;;;;;;;14.30;10.50;;;;;;;13.34;69.28;100058.16;7382179;19;20029;-74
2021/11/19 12:33:07;;;;;;;14.35;10.88;;;;;;;13.36;68.92;100058.91;7385759;19;20548;-75
2021/11/19 12:36:02;;;;;;;16.38;11.07;;;;;;;13.37;69.29;100060.59;7384831;19;20049;-73
2021/11/19 12:38:52;;;;;;;16.38;11.00;;;;;;;13.39;69.20;100050.00;7383605;19;20022;-73
2021/11/19 12:41:45;;;;;;;16.55;11.52;;;;;;;13.38;69.27;100056.19;7382053;19;20031;-73
2021/11/19 12:45:14;;;;;;;15.50;11.05;;;;;;;13.37;69.03;100057.97;7382651;19;20463;-75
2021/11/19 12:48:33;;;;;;;19.00;12.55;;;;;;;13.36;68.95;100052.78;7384863;19;20022;-75
2021/11/19 12:51:28;;;;;;;18.92;12.13;;;;;;;13.41;68.67;100053.41;7383553;19;20029;-72
2021/11/19 12:54:29;;;;;;;26.55;15.43;;;;;;;13.39;69.13;100047.38;7379260;19;20144;-72
2021/11/19 12:57:38;;;;;;;21.27;12.13;;;;;;;13.39;68.84;100040.31;7382948;19;20526;-73
2021/11/19 13:00:45;;;;;;;27.73;13.90;;;;;;;13.36;68.95;100051.00;7381377;19;20021;-73
2021/11/19 13:04:03;;;;;;;33.80;17.10;;;;;;;13.29;68.93;100046.97;7382351;19;20030;-71
2021/11/19 13:06:58;;;;;;;18.90;12.45;;;;;;;13.36;68.96;100065.97;7383400;19;20100;-71
2021/11/19 13:09:54;;;;;;;22.48;14.00;;;;;;;13.41;68.88;100053.41;7382278;19;20552;-72
2021/11/19 13:13:22;;;;;;;22.17;14.05;;;;;;;13.38;69.27;100040.41;7392502;19;20055;-72
2021/11/19 13:16:35;;;;;;;15.30;11.13;;;;;;;13.35;69.07;100053.72;7392165;19;20376;-70
2021/11/19 13:19:58;;;;;;;20.90;12.63;;;;;;;13.34;68.96;100046.75;7390067;19;20290;-70
2021/11/19 13:22:52;;;;;;;21.63;13.77;;;;;;;13.36;68.91;100050.16;7390111;19;20026;-70
2021/11/19 13:25:47;;;;;;;20.08;13.68;;;;;;;13.37;69.36;100046.59;7391787;19;20045;-74
2021/11/19 13:28:52;;;;;;;19.13;12.43;;;;;;;13.34;68.95;100057.28;7385580;19;20021;-76
2021/11/19 13:31:41;;;;;;;23.00;13.95;;;;;;;13.39;69.25;100055.25;7389331;19;20118;-71
2021/11/19 13:34:46;;;;;;;30.83;20.88;;;;;;;13.37;69.07;100057.97;7388455;19;20228;-72
2021/11/19 13:37:36;;;;;;;24.85;16.77;;;;;;;13.42;68.93;100058.56;7388751;19;20030;-75
2021/11/19 13:40:47;;;;;;;24.03;15.30;;;;;;;13.42;68.81;100070.91;7385964;19;20026;-70
2021/11/19 13:43:53;;;;;;;20.67;14.50;;;;;;;13.34;69.07;100062.56;7386665;19;20048;-69
2021/11/19 13:46:50;;;;;;;19.63;14.77;;;;;;;13.33;69.49;100058.22;7388536;19;20655;-69
2021/11/19 13:49:52;;;;;;;19.23;12.60;;;;;;;13.32;69.32;100061.75;7387646;19;20018;-67
2021/11/19 13:52:46;;;;;;;20.00;13.63;;;;;;;13.36;69.14;100063.31;7389797;19;20018;-69
2021/11/19 13:55:37;;;;;;;18.50;14.07;;;;;;;13.33;69.79;100060.84;7388999;19;20658;-72
2021/11/19 13:58:37;;;;;;;23.40;16.00;;;;;;;13.26;69.44;100056.81;7388325;19;20041;-67
2021/11/19 14:01:41;;;;;;;25.65;15.43;;;;;;;13.24;69.51;100061.31;7389446;19;20041;-70
2021/11/19 14:04:33;;;;;;;17.30;12.50;;;;;;;13.34;69.23;100066.03;7385429;19;20025;-68
2021/11/19 14:07:23;;;;;;;23.05;13.88;;;;;;;13.36;69.25;100065.97;7389422;19;20034;-68
2021/11/19 14:10:25;;;;;;;24.45;17.00;;;;;;;13.30;69.55;100058.34;7385356;19;20492;-69
2021/11/19 14:13:28;;;;;;;21.35;14.75;;;;;;;13.41;69.29;100054.25;7388018;19;20051;-67
2021/11/19 14:16:26;;;;;;;18.58;12.57;;;;;;;13.39;69.08;100060.53;7390034;19;20118;-67
2021/11/19 14:19:23;;;;;;;19.02;13.75;;;;;;;13.37;69.04;100068.50;7388070;19;20021;-67
2021/11/19 14:22:15;;;;;;;17.25;13.07;;;;;;;13.30;69.42;100076.78;7386825;19;20130;-68
2021/11/19 14:25:08;;;;;;;18.40;12.95;;;;;;;13.31;69.40;100078.50;7386266;19;20024;-67
2021/11/19 14:28:01;;;;;;;20.42;14.20;;;;;;;13.33;69.69;100071.38;7387945;19;20051;-68
2021/11/19 14:30:50;;;;;;;21.10;13.93;;;;;;;13.34;69.58;100068.69;7387112;19;20485;-67
2021/11/19 14:33:59;;;;;;;18.63;13.52;;;;;;;13.30;69.40;100071.53;7386790;19;20119;-67
2021/11/19 14:36:52;;;;;;;18.73;13.20;;;;;;;13.37;68.96;100072.94;7388524;19;20016;-67
2021/11/19 14:39:42;;;;;;;15.57;12.65;;;;;;;13.35;69.16;100069.53;7386573;19;20041;-70
2021/11/19 14:42:31;;;;;;;19.33;14.25;;;;;;;13.34;69.54;100078.34;7389646;19;20022;-71
2021/11/19 14:45:23;;;;;;;20.77;13.38;;;;;;;13.36;69.25;100081.75;7384871;19;20047;-69
2021/11/19 14:48:13;;;;;;;19.33;14.13;;;;;;;13.29;69.29;100070.66;7386430;19;20035;-69
2021/11/19 14:51:08;;;;;;;19.75;13.15;;;;;;;13.40;68.90;100073.59;7385529;19;20624;-70
2021/11/19 14:53:59;;;;;;;19.00;13.57;;;;;;;13.50;69.11;100063.44;7383329;19;20021;-69
2021/11/19 14:56:53;;;;;;;20.35;14.13;;;;;;;13.52;68.84;100065.97;7388809;19;20471;-70
2021/11/19 14:59:55;;;;;;;18.83;13.48;;;;;;;13.55;69.19;100053.53;7382338;19;20375;-73
2021/11/19 15:11:37;;;;;;;23.83;16.23;;;;;;;13.21;69.89;100050.97;7331303;19;20015;-73
2021/11/19 15:40:54;;;;;;;22.50;16.65;;;;;;;13.18;69.67;100062.50;7344731;19;20355;-73
2021/11/19 16:27:13;;;;;;;20.73;14.73;;;;;;;12.85;71.17;100038.72;7335603;19;20014;-70
2021/11/19 16:38:39;;;;;;;19.50;16.25;;;;;;;12.90;70.97;100028.81;7348017;19;19923;-73
2021/11/19 16:59:37;;;;;;;23.05;14.77;;;;;;;12.86;71.87;100044.84;7308276;19;20259;-73
2021/11/19 18:24:53;;;;;;;13.68;9.68;;;;;;;13.40;69.20;100025.38;7372033;19;20022;-71
2021/11/19 18:32:51;;;;;;;16.38;10.80;;;;;;;13.42;69.04;100028.75;7327841;19;20014;-78
2021/11/19 18:46:29;;;;;;;13.32;9.70;;;;;;;13.43;69.33;100019.94;7185780;19;2982427;-73
2021/11/19 19:53:29;;;;;;;11.32;8.70;;;;;;;13.47;67.74;100010.94;7379516;19;20022;-73
2021/11/19 19:56:22;;;;;;;12.52;8.88;;;;;;;13.50;67.49;100016.03;7385557;19;20025;-69
2021/11/19 19:59:11;;;;;;;12.95;8.60;;;;;;;13.55;67.46;100003.47;7387402;19;20048;-72
2021/11/19 20:01:59;;;;;;;10.50;8.10;;;;;;;13.56;67.42;100007.81;7381712;19;20032;-73
2021/11/19 20:04:47;;;;;;;11.15;7.60;;;;;;;13.54;67.63;100020.22;7383166;19;20538;-70
2021/11/19 20:07:34;;;;;;;12.48;8.45;;;;;;;13.55;67.37;100007.91;7381930;19;20041;-68
2021/11/19 20:10:27;;;;;;;10.52;7.28;;;;;;;13.53;67.18;100018.47;7384434;19;20562;-69
